Time;durP1;ratioP1;P1;durP2;ratioP2;P2;SDS_P1;SDS_P2;PMS_P1;PMS_P2;Temp;Humidity;BMP_temperature;BMP_pressure;BME280_temperature;BME280_humidity;BME280_pressure;Samples;Min_cycle;Max_cycle;Signal;HPM_P1;HPM_P2
2024/01/13 00:01:01;;;;;;;25.77;12.25;;;;;;;2.37;100.00;102734.50;4876964;29;20335;-69
2024/01/13 00:03:29;;;;;;;27.77;11.77;;;;;;;2.35;100.00;102736.28;4878839;29;20033;-69
2024/01/13 00:05:54;;;;;;;26.02;11.45;;;;;;;2.36;100.00;102734.53;4894701;29;20045;-69
2024/01/13 00:08:20;;;;;;;24.02;11.65;;;;;;;2.33;100.00;102729.22;4894922;29;20033;-69
2024/01/13 00:10:45;;;;;;;27.33;11.95;;;;;;;2.30;100.00;102729.25;4891836;29;20056;-69
2024/01/13 00:13:10;;;;;;;24.63;11.00;;;;;;;2.32;100.00;102724.81;4889919;29;22497;-69
2024/01/13 00:15:36;;;;;;;24.98;12.20;;;;;;;2.34;100.00;102717.72;4890431;29;20033;-69
2024/01/13 00:18:01;;;;;;;25.02;10.15;;;;;;;2.37;100.00;102712.38;4887835;29;20075;-69
2024/01/13 00:20:26;;;;;;;26.00;10.60;;;;;;;2.39;100.00;102719.44;4889279;29;20032;-69
2024/01/13 00:22:52;;;;;;;23.65;11.32;;;;;;;2.40;100.00;102705.28;4880256;29;20035;-67
2024/01/13 00:25:17;;;;;;;21.95;9.27;;;;;;;2.38;100.00;102714.16;4888795;29;20056;-69
2024/01/13 00:27:42;;;;;;;23.77;10.20;;;;;;;2.39;100.00;102714.13;4890358;29;20051;-66
2024/01/13 00:30:08;;;;;;;20.95;10.10;;;;;;;2.39;100.00;102716.78;4888665;29;20103;-65
2024/01/13 00:32:33;;;;;;;23.92;9.82;;;;;;;2.38;100.00;102706.19;4888866;29;20021;-69
2024/01/13 00:34:59;;;;;;;21.88;9.88;;;;;;;2.36;100.00;102703.53;4887314;29;20013;-68
2024/01/13 00:37:24;;;;;;;21.05;8.27;;;;;;;2.38;100.00;102698.22;4890459;29;20041;-69
2024/01/13 00:39:49;;;;;;;21.90;9.60;;;;;;;2.40;100.00;102699.97;4890707;29;20017;-68
2024/01/13 00:42:14;;;;;;;27.20;10.00;;;;;;;2.41;100.00;102701.72;4898245;29;20029;-65
2024/01/13 00:44:40;;;;;;;22.60;10.27;;;;;;;2.41;100.00;102696.41;4878678;29;20090;-69
2024/01/13 00:47:05;;;;;;;21.90;9.48;;;;;;;2.43;100.00;102684.03;4898239;29;20133;-68
2024/01/13 00:49:30;;;;;;;25.38;9.93;;;;;;;2.46;100.00;102688.44;4884618;29;20248;-67
2024/01/13 00:51:55;;;;;;;21.52;9.65;;;;;;;2.45;100.00;102687.53;4889134;29;20040;-67
2024/01/13 00:54:21;;;;;;;20.27;8.57;;;;;;;2.45;100.00;102681.34;4895629;29;20093;-68
2024/01/13 00:56:46;;;;;;;23.25;9.80;;;;;;;2.44;100.00;102683.09;4897642;29;20040;-66
2024/01/13 00:59:11;;;;;;;23.52;8.93;;;;;;;2.44;100.00;102683.09;4871076;29;20033;-66
2024/01/13 01:01:37;;;;;;;23.92;9.35;;;;;;;2.44;100.00;102687.53;4887151;29;20151;-65
2024/01/13 01:04:03;;;;;;;25.92;9.35;;;;;;;2.39;100.00;102679.63;4893683;29;20457;-65
2024/01/13 01:06:28;;;;;;;22.17;8.38;;;;;;;2.40;100.00;102672.53;4894972;29;20052;-69
2024/01/13 01:08:53;;;;;;;21.13;8.95;;;;;;;2.40;100.00;102672.53;4879705;29;20476;-66
2024/01/13 01:11:18;;;;;;;23.67;9.63;;;;;;;2.40;100.00;102669.88;4893590;29;20041;-66
2024/01/13 01:13:44;;;;;;;23.23;10.20;;;;;;;2.42;100.00;102666.34;4898839;29;20049;-66
2024/01/13 01:16:10;;;;;;;22.88;9.43;;;;;;;2.41;100.00;102669.88;4896889;29;20068;-68
2024/01/13 01:18:35;;;;;;;21.10;8.82;;;;;;;2.39;100.00;102668.16;4897229;29;20093;-67
2024/01/13 01:21:01;;;;;;;24.83;8.90;;;;;;;2.39;100.00;102666.38;4876001;29;20040;-68
2024/01/13 01:23:26;;;;;;;24.63;9.50;;;;;;;2.40;100.00;102662.81;4889275;29;20061;-65
2024/01/13 01:25:51;;;;;;;21.95;8.75;;;;;;;2.41;100.00;102661.91;4897381;29;20032;-67
2024/01/13 01:28:17;;;;;;;23.02;9.35;;;;;;;2.40;100.00;102651.31;4894372;29;20181;-66
2024/01/13 01:30:42;;;;;;;24.13;9.50;;;;;;;2.42;100.00;102646.88;4895864;29;20320;-69
2024/01/13 01:33:07;;;;;;;23.23;9.68;;;;;;;2.41;100.00;102647.78;4900736;29;20096;-69
2024/01/13 01:35:32;;;;;;;23.02;10.57;;;;;;;2.42;100.00;102646.88;4876044;29;20052;-69
2024/01/13 01:37:58;;;;;;;24.23;10.43;;;;;;;2.41;100.00;102648.63;4882573;29;20045;-69
2024/01/13 01:40:26;;;;;;;25.55;10.30;;;;;;;2.42;100.00;102639.78;4895763;29;20205;-69
2024/01/13 01:42:52;;;;;;;22.73;10.80;;;;;;;2.45;100.00;102633.59;4900441;29;20107;-69
2024/01/13 01:45:17;;;;;;;21.48;10.43;;;;;;;2.47;100.00;102628.25;4893873;29;20112;-69
2024/01/13 01:47:44;;;;;;;24.77;11.05;;;;;;;2.44;100.00;102635.34;4889143;29;20052;-69
2024/01/13 01:50:10;;;;;;;24.33;10.23;;;;;;;2.47;100.00;102639.75;4877876;29;20045;-69
2024/01/13 01:52:37;;;;;;;23.25;11.73;;;;;;;2.47;100.00;102641.53;4892008;29;20051;-69
2024/01/13 01:55:03;;;;;;;23.95;10.40;;;;;;;2.45;100.00;102639.75;4893298;29;20021;-69
2024/01/13 01:57:29;;;;;;;24.80;10.48;;;;;;;2.44;100.00;102631.81;4890068;29;20953;-69
2024/01/13 01:59:54;;;;;;;24.05;10.73;;;;;;;2.45;100.00;102623.84;4892328;29;20088;-69
2024/01/13 02:02:21;;;;;;;24.55;11.05;;;;;;;2.45;100.00;102629.13;4889449;29;20029;-67
2024/01/13 02:04:47;;;;;;;23.42;10.95;;;;;;;2.41;100.00;102622.09;4885082;29;20686;-67
2024/01/13 02:07:13;;;;;;;24.15;10.95;;;;;;;2.40;100.00;102630.97;4888891;29;20057;-65
2024/01/13 02:09:39;;;;;;;26.70;10.25;;;;;;;2.40;100.00;102627.44;4892145;29;20028;-68
2024/01/13 02:12:05;;;;;;;25.42;12.05;;;;;;;2.41;100.00;102624.75;4891790;29;20025;-69
2024/01/13 02:14:30;;;;;;;23.67;12.45;;;;;;;2.42;100.00;102615.03;4886739;29;20041;-68
2024/01/13 02:16:57;;;;;;;23.33;11.77;;;;;;;2.44;100.00;102610.59;4876585;29;20059;-67
2024/01/13 02:19:22;;;;;;;28.92;12.68;;;;;;;2.44;100.00;102614.09;4892635;29;20037;-68
2024/01/13 02:21:47;;;;;;;22.63;12.25;;;;;;;2.46;100.00;102603.50;4892539;29;20037;-66
2024/01/13 02:24:13;;;;;;;25.10;12.52;;;;;;;2.48;100.00;102595.53;4881580;29;20029;-66
2024/01/13 02:26:38;;;;;;;26.00;12.32;;;;;;;2.49;100.00;102594.59;4891765;29;20094;-68
2024/01/13 02:29:04;;;;;;;25.58;12.57;;;;;;;2.50;100.00;102599.03;4893178;29;20040;-66
2024/01/13 02:31:29;;;;;;;23.77;12.48;;;;;;;2.48;100.00;102590.22;4888271;29;20029;-68
2024/01/13 02:33:54;;;;;;;27.35;12.75;;;;;;;2.48;100.00;102590.22;4895328;29;20041;-66
2024/01/13 02:36:20;;;;;;;23.13;11.23;;;;;;;2.50;100.00;102583.09;4876627;29;20041;-66
2024/01/13 02:38:45;;;;;;;23.08;11.77;;;;;;;2.52;100.00;102581.28;4891434;29;20133;-66
2024/01/13 02:41:10;;;;;;;24.23;12.35;;;;;;;2.53;100.00;102578.63;4877594;29;20232;-66
2024/01/13 02:43:36;;;;;;;23.83;12.48;;;;;;;2.52;100.00;102584.84;4892893;29;20033;-66
2024/01/13 02:46:02;;;;;;;24.88;11.80;;;;;;;2.53;100.00;102583.06;4893597;29;20365;-67
2024/01/13 02:48:31;;;;;;;23.13;11.93;;;;;;;2.53;100.00;102588.38;4895359;29;20024;-69
2024/01/13 02:51:01;;;;;;;24.30;10.52;;;;;;;2.52;100.00;102576.88;4900711;29;20041;-66
2024/01/13 02:53:27;;;;;;;25.20;12.50;;;;;;;2.51;100.00;102576.91;4895176;29;20048;-67
2024/01/13 02:55:53;;;;;;;25.92;11.65;;;;;;;2.52;100.00;102570.69;4868516;29;20036;-67
2024/01/13 02:58:18;;;;;;;21.55;10.90;;;;;;;2.52;100.00;102566.28;4880354;29;20037;-66
2024/01/13 03:00:43;;;;;;;25.58;12.30;;;;;;;2.52;100.00;102553.00;4902666;29;20029;-68
2024/01/13 03:03:09;;;;;;;25.35;11.88;;;;;;;2.52;100.00;102549.44;4883048;29;20128;-69
2024/01/13 03:05:34;;;;;;;27.17;12.48;;;;;;;2.53;100.00;102552.06;4860848;29;20036;-69
2024/01/13 03:07:59;;;;;;;21.98;10.88;;;;;;;2.53;100.00;102543.25;4855556;29;20029;-69
2024/01/13 03:10:25;;;;;;;24.85;12.02;;;;;;;2.54;100.00;102551.19;4874404;29;20490;-69
2024/01/13 03:12:50;;;;;;;22.63;12.15;;;;;;;2.55;100.00;102544.13;4894830;29;20032;-69
2024/01/13 03:15:15;;;;;;;23.83;11.38;;;;;;;2.55;100.00;102539.69;4885395;29;20041;-69
2024/01/13 03:17:40;;;;;;;24.73;11.30;;;;;;;2.54;100.00;102531.75;4892634;29;20025;-69
2024/01/13 03:20:06;;;;;;;23.48;10.63;;;;;;;2.55;100.00;102531.72;4879671;29;20028;-69
2024/01/13 03:22:32;;;;;;;24.25;10.68;;;;;;;2.53;100.00;102520.22;4879835;29;20028;-69
2024/01/13 03:24:57;;;;;;;22.88;10.30;;;;;;;2.54;100.00;102511.38;4870112;29;20037;-69
2024/01/13 03:27:22;;;;;;;25.88;10.13;;;;;;;2.54;100.00;102508.72;4897648;29;20033;-69
2024/01/13 03:29:48;;;;;;;21.77;8.32;;;;;;;2.54;100.00;102502.56;4891520;29;20033;-69
2024/01/13 03:32:13;;;;;;;23.60;8.85;;;;;;;2.55;100.00;102494.56;4886687;29;20033;-67
2024/01/13 03:34:38;;;;;;;19.50;8.68;;;;;;;2.55;100.00;102494.56;4869002;29;20030;-67
2024/01/13 03:37:04;;;;;;;19.05;7.95;;;;;;;2.55;100.00;102491.03;4891510;29;20101;-65
2024/01/13 03:39:29;;;;;;;20.35;7.43;;;;;;;2.55;100.00;102491.91;4878748;29;20025;-65
2024/01/13 03:41:55;;;;;;;21.33;7.38;;;;;;;2.56;100.00;102501.63;4892144;29;20032;-69
2024/01/13 03:44:21;;;;;;;17.52;6.85;;;;;;;2.56;100.00;102492.78;4870814;29;20047;-67
2024/01/13 03:46:46;;;;;;;17.38;6.10;;;;;;;2.57;100.00;102494.53;4890706;29;20060;-66
2024/01/13 03:49:11;;;;;;;18.85;6.28;;;;;;;2.57;100.00;102489.25;4890933;29;20052;-66
2024/01/13 03:51:36;;;;;;;18.48;5.72;;;;;;;2.56;100.00;102479.50;4892649;29;20399;-65
2024/01/13 03:54:02;;;;;;;17.90;5.50;;;;;;;2.56;100.00;102483.06;4889159;29;20057;-67
2024/01/13 03:56:27;;;;;;;15.40;5.47;;;;;;;2.58;100.00;102483.03;4877754;29;20028;-65
2024/01/13 03:58:53;;;;;;;15.25;5.45;;;;;;;2.60;100.00;102479.44;4884280;29;20044;-65
2024/01/13 04:01:18;;;;;;;15.60;5.45;;;;;;;2.61;100.00;102475.91;4882095;29;20053;-68
2024/01/13 04:03:43;;;;;;;15.90;5.75;;;;;;;2.65;100.00;102478.50;4866163;29;20041;-67
2024/01/13 04:06:09;;;;;;;15.35;4.97;;;;;;;2.61;100.00;102475.91;4883251;29;20080;-67
2024/01/13 04:08:34;;;;;;;15.80;5.20;;;;;;;2.62;100.00;102472.34;4872243;29;20030;-68
2024/01/13 04:10:59;;;;;;;15.45;5.18;;;;;;;2.61;100.00;102473.25;4867502;29;20048;-68
2024/01/13 04:13:25;;;;;;;16.63;5.30;;;;;;;2.60;100.00;102463.50;4856761;29;20029;-69
2024/01/13 04:15:50;;;;;;;13.27;4.28;;;;;;;2.60;100.00;102463.50;4870064;29;20061;-69
2024/01/13 04:18:15;;;;;;;17.58;5.45;;;;;;;2.61;100.00;102467.06;4856236;29;20034;-69
2024/01/13 04:20:40;;;;;;;15.55;4.97;;;;;;;2.62;100.00;102451.13;4870292;29;20025;-69
2024/01/13 04:23:06;;;;;;;18.70;5.47;;;;;;;2.61;100.00;102443.19;4878233;29;20040;-69
2024/01/13 04:25:32;;;;;;;14.80;5.43;;;;;;;2.59;100.00;102450.25;4877957;29;20071;-69
2024/01/13 04:28:00;;;;;;;16.75;5.80;;;;;;;2.60;100.00;102441.41;4879462;29;20036;-69
2024/01/13 04:30:29;;;;;;;17.25;5.22;;;;;;;2.59;100.00;102443.19;4878246;29;20040;-69
2024/01/13 04:32:54;;;;;;;17.55;6.18;;;;;;;2.58;100.00;102437.91;4862026;29;20057;-69
2024/01/13 04:35:19;;;;;;;14.48;4.93;;;;;;;2.58;100.00;102441.44;4875563;29;20105;-69
2024/01/13 04:37:44;;;;;;;16.52;5.30;;;;;;;2.58;100.00;102435.25;4883850;29;20053;-69
2024/01/13 04:40:10;;;;;;;16.92;5.25;;;;;;;2.58;100.00;102440.56;4887381;29;20063;-68
2024/01/13 04:42:35;;;;;;;17.40;5.50;;;;;;;2.58;100.00;102443.22;4873042;29;20553;-69
2024/01/13 04:45:01;;;;;;;16.83;5.55;;;;;;;2.60;100.00;102449.38;4886186;29;20025;-69
2024/01/13 04:47:27;;;;;;;17.48;5.95;;;;;;;2.61;100.00;102437.88;4882395;29;20029;-69
2024/01/13 04:49:52;;;;;;;17.48;6.35;;;;;;;2.62;100.00;102440.50;4885870;29;20051;-69
2024/01/13 04:52:18;;;;;;;17.30;6.35;;;;;;;2.58;100.00;102438.78;4893051;24;20448;-68
2024/01/13 04:54:43;;;;;;;17.58;5.90;;;;;;;2.63;100.00;102441.38;4878623;29;20151;-68
2024/01/13 04:57:08;;;;;;;17.13;5.90;;;;;;;2.63;100.00;102436.06;4877590;29;20041;-69
2024/01/13 04:59:33;;;;;;;19.25;6.40;;;;;;;2.60;100.00;102439.63;4883271;29;20644;-69
2024/01/13 05:01:59;;;;;;;16.63;6.22;;;;;;;2.60;100.00;102428.16;4880118;29;20033;-69
2024/01/13 05:04:24;;;;;;;18.70;7.20;;;;;;;2.60;100.00;102430.78;4884644;29;20116;-69
2024/01/13 05:06:50;;;;;;;17.02;6.30;;;;;;;2.58;100.00;102420.19;4867836;29;20025;-68
2024/01/13 05:09:15;;;;;;;21.02;7.95;;;;;;;2.56;100.00;102429.97;4873563;29;20025;-69
2024/01/13 05:11:40;;;;;;;22.02;8.75;;;;;;;2.57;100.00;102430.84;4880972;29;20375;-69
2024/01/13 05:14:05;;;;;;;20.15;8.43;;;;;;;2.58;100.00;102427.31;4882044;29;20044;-69
2024/01/13 05:16:31;;;;;;;21.58;8.82;;;;;;;2.57;100.00;102425.53;4876154;29;20125;-69
2024/01/13 05:18:56;;;;;;;22.17;9.60;;;;;;;2.56;100.00;102418.47;4874986;29;20093;-69
2024/01/13 05:21:22;;;;;;;21.73;9.52;;;;;;;2.56;100.00;102423.78;4882271;29;20076;-69
2024/01/13 05:23:47;;;;;;;22.70;9.73;;;;;;;2.58;100.00;102422.00;4877995;29;20240;-68
2024/01/13 05:26:12;;;;;;;23.70;11.80;;;;;;;2.60;100.00;102425.50;4896872;29;20017;-69
2024/01/13 05:28:38;;;;;;;24.08;11.27;;;;;;;2.58;100.00;102419.34;4891700;29;20028;-66
2024/01/13 05:31:03;;;;;;;26.45;11.98;;;;;;;2.59;100.00;102427.28;4893341;29;20048;-69
2024/01/13 05:33:29;;;;;;;24.77;12.32;;;;;;;2.57;100.00;102421.09;4879717;29;20028;-65
2024/01/13 05:35:54;;;;;;;25.27;12.55;;;;;;;2.58;100.00;102416.69;4893041;29;20034;-66
2024/01/13 05:38:20;;;;;;;29.42;13.88;;;;;;;2.60;100.00;102415.72;4897016;29;20049;-69
2024/01/13 05:40:45;;;;;;;26.45;14.23;;;;;;;2.60;100.00;102414.88;4896906;29;20028;-65
2024/01/13 05:43:11;;;;;;;30.63;15.02;;;;;;;2.59;100.00;102424.63;4880366;29;20093;-66
2024/01/13 05:45:36;;;;;;;26.63;14.57;;;;;;;2.58;100.00;102412.25;4894610;29;20033;-66
2024/01/13 05:48:01;;;;;;;28.58;14.20;;;;;;;2.59;100.00;102419.31;4898769;29;20409;-67
2024/01/13 05:50:27;;;;;;;25.95;14.23;;;;;;;2.58;100.00;102416.69;4895558;29;20025;-65
2024/01/13 05:52:53;;;;;;;27.10;14.55;;;;;;;2.60;100.00;102420.19;4891861;29;20064;-66
2024/01/13 05:55:18;;;;;;;27.35;14.25;;;;;;;2.58;100.00;102411.38;4873285;29;20033;-68
2024/01/13 05:57:43;;;;;;;26.50;15.45;;;;;;;2.60;100.00;102418.38;4892270;29;20029;-66
2024/01/13 06:00:09;;;;;;;27.13;15.20;;;;;;;2.57;100.00;102413.13;4891953;29;20025;-65
2024/01/13 06:02:35;;;;;;;27.52;15.18;;;;;;;2.55;100.00;102414.06;4879165;29;20033;-68
2024/01/13 06:05:00;;;;;;;29.95;15.95;;;;;;;2.56;100.00;102423.78;4891257;29;20021;-66
2024/01/13 06:07:26;;;;;;;26.83;15.63;;;;;;;2.56;100.00;102411.41;4893707;29;20088;-69
2024/01/13 06:09:51;;;;;;;28.25;14.95;;;;;;;2.57;100.00;102428.19;4892673;29;20061;-66
2024/01/13 06:12:17;;;;;;;36.40;17.80;;;;;;;2.57;100.00;102429.06;4891794;29;20039;-65
2024/01/13 06:14:42;;;;;;;32.80;17.38;;;;;;;2.57;100.00;102428.19;4890053;29;20032;-66
2024/01/13 06:17:08;;;;;;;29.50;16.35;;;;;;;2.55;100.00;102422.91;4890907;29;20029;-67
2024/01/13 06:19:33;;;;;;;30.13;17.98;;;;;;;2.56;100.00;102413.16;4893684;29;20028;-65
2024/01/13 06:21:59;;;;;;;29.00;17.38;;;;;;;2.56;100.00;102403.44;4892362;29;20033;-65
2024/01/13 06:24:24;;;;;;;32.00;17.55;;;;;;;2.55;100.00;102398.16;4892033;29;20120;-66
2024/01/13 06:26:49;;;;;;;31.70;17.25;;;;;;;2.56;100.00;102397.22;4893243;29;20032;-65
2024/01/13 06:29:15;;;;;;;33.03;17.45;;;;;;;2.55;100.00;102384.88;4889326;29;20769;-66
2024/01/13 06:31:40;;;;;;;29.98;17.38;;;;;;;2.54;100.00;102375.16;4875229;29;20025;-68
2024/01/13 06:34:05;;;;;;;28.20;15.75;;;;;;;2.54;100.00;102368.06;4880037;29;20029;-69
2024/01/13 06:36:31;;;;;;;28.27;16.85;;;;;;;2.53;100.00;102363.63;4871190;29;20181;-69
2024/01/13 06:38:56;;;;;;;29.20;18.13;;;;;;;2.54;100.00;102353.94;4879726;29;20499;-69
2024/01/13 06:41:22;;;;;;;28.65;17.05;;;;;;;2.54;100.00;102356.56;4879101;29;20032;-69
2024/01/13 06:43:47;;;;;;;29.70;19.27;;;;;;;2.54;100.00;102357.44;4876432;29;20064;-69
2024/01/13 06:46:12;;;;;;;29.08;18.38;;;;;;;2.56;100.00;102365.38;4864113;29;20029;-69
2024/01/13 06:48:37;;;;;;;32.72;17.27;;;;;;;2.55;100.00;102368.97;4880436;29;20060;-69
2024/01/13 06:51:03;;;;;;;32.50;18.60;;;;;;;2.54;100.00;102368.06;4877904;29;20025;-69
2024/01/13 06:53:28;;;;;;;30.65;18.30;;;;;;;2.53;100.00;102370.75;4881020;29;20402;-68
2024/01/13 06:55:54;;;;;;;29.70;17.15;;;;;;;2.51;100.00;102373.41;4886005;29;20052;-68
2024/01/13 06:58:19;;;;;;;32.55;17.10;;;;;;;2.52;100.00;102361.00;4877923;29;20032;-68
2024/01/13 07:00:45;;;;;;;34.85;18.67;;;;;;;2.52;100.00;102353.06;4869148;29;20085;-68
2024/01/13 07:03:10;;;;;;;30.67;18.13;;;;;;;2.52;100.00;102329.16;4877351;29;20098;-68
2024/01/13 07:05:35;;;;;;;31.58;17.48;;;;;;;2.52;100.00;102332.72;4876963;29;20056;-68
2024/01/13 07:08:00;;;;;;;32.40;18.52;;;;;;;2.53;100.00;102331.78;4880466;29;20543;-68
2024/01/13 07:10:27;;;;;;;31.00;18.52;;;;;;;2.54;100.00;102328.25;4879015;29;20037;-69
2024/01/13 07:12:52;;;;;;;30.70;17.80;;;;;;;2.55;100.00;102321.19;4881030;29;20093;-69
2024/01/13 07:15:17;;;;;;;33.90;18.92;;;;;;;2.54;100.00;102314.13;4876402;29;20446;-69
2024/01/13 07:17:42;;;;;;;35.97;18.55;;;;;;;2.54;100.00;102292.88;4865087;29;20029;-69
2024/01/13 07:20:08;;;;;;;28.15;17.17;;;;;;;2.54;100.00;102300.84;4868718;29;20062;-69
2024/01/13 07:22:34;;;;;;;30.00;17.80;;;;;;;2.54;100.00;102298.19;4877735;29;20037;-69
2024/01/13 07:24:59;;;;;;;29.73;18.35;;;;;;;2.55;100.00;102311.44;4876542;29;20059;-69
2024/01/13 07:27:24;;;;;;;31.58;18.42;;;;;;;2.54;100.00;102298.19;4878180;29;20040;-69
2024/01/13 07:29:50;;;;;;;29.48;17.77;;;;;;;2.53;100.00;102296.44;4875539;29;20048;-69
2024/01/13 07:32:16;;;;;;;32.75;19.73;;;;;;;2.52;100.00;102290.25;4875983;29;20096;-69
2024/01/13 07:34:42;;;;;;;30.08;17.92;;;;;;;2.54;100.00;102276.97;4867175;29;20033;-69
2024/01/13 07:37:07;;;;;;;29.88;17.85;;;;;;;2.52;100.00;102274.34;4879794;29;20037;-68
2024/01/13 07:39:32;;;;;;;29.83;17.55;;;;;;;2.52;100.00;102274.34;4877176;29;20306;-68
2024/01/13 07:41:57;;;;;;;33.03;18.33;;;;;;;2.51;100.00;102284.97;4882062;29;20064;-69
2024/01/13 07:44:23;;;;;;;31.00;18.27;;;;;;;2.53;100.00;102299.09;4875959;29;20047;-69
2024/01/13 07:46:48;;;;;;;34.33;20.48;;;;;;;2.53;100.00;102288.47;4873016;29;20066;-69
2024/01/13 07:49:14;;;;;;;32.95;17.88;;;;;;;2.54;100.00;102280.47;4890188;29;20032;-69
2024/01/13 07:51:39;;;;;;;32.15;17.92;;;;;;;2.57;100.00;102271.59;4890047;29;20037;-69
2024/01/13 07:54:04;;;;;;;28.90;17.27;;;;;;;2.56;100.00;102267.19;4892083;29;20060;-69
2024/01/13 07:56:30;;;;;;;31.38;17.98;;;;;;;2.55;100.00;102263.66;4889214;29;20041;-69
2024/01/13 07:58:55;;;;;;;29.98;17.77;;;;;;;2.55;100.00;102247.75;4890327;29;20037;-69
2024/01/13 08:01:20;;;;;;;30.48;18.33;;;;;;;2.54;100.00;102251.28;4873409;29;20043;-69
2024/01/13 08:03:46;;;;;;;32.50;18.08;;;;;;;2.54;100.00;102245.09;4890926;29;20028;-69
2024/01/13 08:06:11;;;;;;;33.40;16.83;;;;;;;2.54;100.00;102251.28;4889112;29;20067;-69
2024/01/13 08:08:36;;;;;;;29.50;16.17;;;;;;;2.56;100.00;102259.22;4890639;29;20100;-69
2024/01/13 08:11:02;;;;;;;31.95;17.60;;;;;;;2.58;100.00;102252.13;4890043;29;20066;-69
2024/01/13 08:13:27;;;;;;;32.40;17.85;;;;;;;2.60;100.00;102245.00;4875875;29;20032;-69
2024/01/13 08:15:52;;;;;;;30.30;16.45;;;;;;;2.61;100.00;102223.72;4874278;29;20036;-69
2024/01/13 08:18:17;;;;;;;30.42;16.95;;;;;;;2.61;100.00;102220.22;4875876;29;20041;-69
2024/01/13 08:20:43;;;;;;;31.67;18.17;;;;;;;2.61;100.00;102233.50;4876397;29;20062;-69
2024/01/13 08:23:08;;;;;;;29.50;17.42;;;;;;;2.60;100.00;102240.56;4887760;29;20044;-69
2024/01/13 08:25:33;;;;;;;30.70;16.27;;;;;;;2.60;100.00;102239.69;4877214;29;20036;-69
2024/01/13 08:27:58;;;;;;;29.95;16.45;;;;;;;2.61;100.00;102212.25;4883184;29;20029;-69
2024/01/13 08:30:24;;;;;;;32.85;17.88;;;;;;;2.62;100.00;102204.25;4876225;29;20096;-69
2024/01/13 08:32:49;;;;;;;28.60;17.52;;;;;;;2.66;100.00;102212.16;4872296;29;20069;-68
2024/01/13 08:35:14;;;;;;;28.70;16.40;;;;;;;2.67;100.00;102224.53;4883332;29;20390;-69
2024/01/13 08:37:40;;;;;;;29.80;17.40;;;;;;;2.69;100.00;102228.03;4883934;29;20032;-69
2024/01/13 08:40:07;;;;;;;29.58;17.77;;;;;;;2.71;100.00;102218.25;4871364;29;20058;-69
2024/01/13 08:42:32;;;;;;;33.05;18.35;;;;;;;2.73;100.00;102214.66;4881445;29;20032;-69
2024/01/13 08:44:57;;;;;;;31.10;18.38;;;;;;;2.72;100.00;102212.91;4871437;29;20031;-69
2024/01/13 08:47:23;;;;;;;33.70;18.77;;;;;;;2.77;100.00;102216.38;4879642;29;20208;-68
2024/01/13 08:49:48;;;;;;;31.98;17.67;;;;;;;2.77;100.00;102224.34;4881042;29;20057;-68
2024/01/13 08:52:14;;;;;;;32.05;18.65;;;;;;;2.80;100.00;102231.38;4879735;29;20089;-69
2024/01/13 08:54:39;;;;;;;31.65;18.30;;;;;;;2.83;100.00;102241.06;4872051;29;20088;-68
2024/01/13 08:57:04;;;;;;;32.50;19.35;;;;;;;2.83;100.00;102241.06;4863771;29;20116;-68
2024/01/13 08:59:30;;;;;;;33.78;20.05;;;;;;;2.86;100.00;102233.91;4863571;29;20032;-69
2024/01/13 09:01:56;;;;;;;31.77;19.77;;;;;;;2.87;100.00;102235.66;4862353;29;20037;-68
2024/01/13 09:04:21;;;;;;;32.40;19.33;;;;;;;2.91;100.00;102233.81;4858753;29;20043;-68
2024/01/13 09:06:46;;;;;;;31.80;19.13;;;;;;;2.96;100.00;102234.63;4876508;29;20485;-68
2024/01/13 09:09:12;;;;;;;33.53;20.50;;;;;;;2.95;100.00;102227.56;4876021;29;20033;-68
2024/01/13 09:11:38;;;;;;;33.85;21.05;;;;;;;2.96;100.00;102230.19;4877610;29;20033;-68
2024/01/13 09:14:03;;;;;;;31.63;19.23;;;;;;;2.99;100.00;102234.56;4875297;29;20069;-69
2024/01/13 09:16:28;;;;;;;35.97;21.35;;;;;;;2.98;100.00;102240.75;4859123;29;20394;-69
2024/01/13 09:18:54;;;;;;;32.33;20.40;;;;;;;2.98;100.00;102236.31;4873923;29;20029;-69
2024/01/13 09:21:21;;;;;;;32.05;19.95;;;;;;;2.97;100.00;102233.69;4871890;29;20112;-68
2024/01/13 09:23:47;;;;;;;38.25;23.40;;;;;;;2.95;100.00;102231.06;4875010;29;20127;-69
2024/01/13 09:26:12;;;;;;;34.35;21.25;;;;;;;2.94;100.00;102232.00;4873874;29;20036;-68
2024/01/13 09:28:37;;;;;;;36.33;21.38;;;;;;;2.94;100.00;102239.06;4860328;29;20518;-69
2024/01/13 09:31:03;;;;;;;32.70;19.83;;;;;;;2.92;100.00;102224.94;4871818;29;20257;-69
2024/01/13 09:33:28;;;;;;;36.42;21.30;;;;;;;2.94;100.00;102224.03;4874082;29;20052;-68
2024/01/13 09:35:53;;;;;;;31.08;18.33;;;;;;;2.95;100.00;102227.56;4875310;29;20036;-69
2024/01/13 09:38:19;;;;;;;38.92;24.02;;;;;;;2.94;100.00;102221.38;4872965;29;20092;-69
2024/01/13 09:40:46;;;;;;;37.72;24.45;;;;;;;2.94;100.00;102223.13;4859092;29;20017;-69
2024/01/13 09:43:24;;;;;;;36.78;21.60;;;;;;;2.93;100.00;102221.41;4877172;29;20079;-69
2024/01/13 09:45:50;;;;;;;30.42;18.05;;;;;;;2.94;100.00;102220.47;4872114;29;20146;-69
2024/01/13 09:48:20;;;;;;;30.92;17.05;;;;;;;2.94;100.00;102217.81;4877837;29;20148;-69
2024/01/13 09:50:53;;;;;;;30.65;18.40;;;;;;;2.95;100.00;102209.81;4877496;29;20103;-69
2024/01/13 09:53:30;;;;;;;32.00;19.08;;;;;;;2.95;100.00;102211.63;4877640;29;20052;-69
2024/01/13 09:56:00;;;;;;;29.08;16.70;;;;;;;2.95;100.00;102203.66;4875657;29;20037;-68
2024/01/13 09:58:26;;;;;;;32.35;17.45;;;;;;;2.95;100.00;102207.16;4877776;29;20060;-69
2024/01/13 10:00:53;;;;;;;34.75;20.52;;;;;;;2.94;100.00;102207.19;4877710;29;20036;-69
2024/01/13 10:03:20;;;;;;;37.03;19.80;;;;;;;2.96;100.00;102205.41;4889008;29;20037;-69
2024/01/13 10:05:46;;;;;;;30.95;19.35;;;;;;;2.97;100.00;102201.81;4893485;29;20031;-69
2024/01/13 10:08:11;;;;;;;30.45;17.58;;;;;;;2.95;100.00;102204.50;4893111;29;20032;-69
2024/01/13 10:10:38;;;;;;;28.98;18.20;;;;;;;2.97;100.00;102201.81;4890234;29;20028;-69
2024/01/13 10:13:05;;;;;;;29.90;17.80;;;;;;;2.97;100.00;102188.53;4887163;29;20029;-69
2024/01/13 10:15:33;;;;;;;30.55;18.38;;;;;;;2.97;100.00;102201.81;4892269;29;20036;-69
2024/01/13 10:18:02;;;;;;;30.30;17.02;;;;;;;2.95;100.00;102198.34;4875886;29;20031;-69
2024/01/13 10:20:28;;;;;;;29.63;17.23;;;;;;;2.96;100.00;102189.47;4887418;29;20021;-69
2024/01/13 10:22:53;;;;;;;29.65;16.73;;;;;;;2.95;100.00;102185.91;4890787;29;20031;-69
2024/01/13 10:25:21;;;;;;;29.63;16.70;;;;;;;2.98;100.00;102187.66;4894210;29;20061;-69
2024/01/13 10:27:47;;;;;;;29.83;17.92;;;;;;;2.99;100.00;102184.09;4877446;29;20044;-69
2024/01/13 10:30:13;;;;;;;30.10;18.02;;;;;;;3.00;100.00;102180.50;4893175;29;20572;-69
2024/01/13 10:32:40;;;;;;;31.42;18.38;;;;;;;3.01;100.00;102184.94;4894506;29;20048;-69
2024/01/13 10:35:07;;;;;;;28.77;16.13;;;;;;;3.02;100.00;102184.03;4892485;29;20025;-69
2024/01/13 10:37:34;;;;;;;30.52;20.00;;;;;;;3.01;100.00;102176.09;4883299;29;20045;-69
2024/01/13 10:40:00;;;;;;;37.15;22.23;;;;;;;3.02;100.00;102170.75;4892413;29;20036;-69
2024/01/13 10:42:33;;;;;;;31.98;19.83;;;;;;;3.02;100.00;102169.88;4892262;29;20100;-69
2024/01/13 10:45:01;;;;;;;28.52;16.50;;;;;;;3.00;100.00;102163.72;4891067;29;20041;-69
2024/01/13 10:47:32;;;;;;;30.08;18.13;;;;;;;2.95;100.00;102166.47;4876372;29;20040;-69
2024/01/13 10:49:58;;;;;;;32.40;18.75;;;;;;;2.96;100.00;102166.44;4893073;29;20055;-69
2024/01/13 10:52:57;;;;;;;29.75;16.55;;;;;;;2.96;100.00;102158.47;4892765;29;20055;-69
2024/01/13 10:55:24;;;;;;;31.00;18.48;;;;;;;2.96;100.00;102161.13;4886199;29;20417;-69
2024/01/13 10:57:50;;;;;;;33.47;18.88;;;;;;;2.99;100.00;102154.88;4878821;29;20112;-68
2024/01/13 11:00:16;;;;;;;29.67;18.45;;;;;;;2.97;100.00;102149.59;4879600;29;20493;-69
2024/01/13 11:02:42;;;;;;;32.53;18.35;;;;;;;3.02;100.00;102148.63;4892280;29;20069;-69
2024/01/13 11:05:09;;;;;;;29.70;17.20;;;;;;;3.00;100.00;102139.81;4889305;29;20033;-69